sensor_id;sensor_type;location;lat;lon;timestamp;temperature;humidity
46458;DHT22;32155;54.076;12.092;2023-07-29T00:02:12;16.90;99.90
46458;DHT22;32155;54.076;12.092;2023-07-29T00:04:37;16.90;99.90
46458;DHT22;32155;54.076;12.092;2023-07-29T00:07:03;16.90;99.90
46458;DHT22;32155;54.076;12.092;2023-07-29T00:09:31;17.00;99.90
46458;DHT22;32155;54.076;12.092;2023-07-29T00:11:56;16.80;99.90
46458;DHT22;32155;54.076;12.092;2023-07-29T00:14:22;16.60;99.90
46458;DHT22;32155;54.076;12.092;2023-07-29T00:16:48;16.60;99.90
46458;DHT22;32155;54.076;12.092;2023-07-29T00:19:13;16.60;99.90
46458;DHT22;32155;54.076;12.092;2023-07-29T00:21:39;16.60;99.90
46458;DHT22;32155;54.076;12.092;2023-07-29T00:24:05;16.60;99.90
46458;DHT22;32155;54.076;12.092;2023-07-29T00:26:33;16.70;99.90
46458;DHT22;32155;54.076;12.092;2023-07-29T00:28:58;16.70;99.90
46458;DHT22;32155;54.076;12.092;2023-07-29T00:31:26;16.80;99.90
46458;DHT22;32155;54.076;12.092;2023-07-29T00:33:52;16.80;99.90
46458;DHT22;32155;54.076;12.092;2023-07-29T00:36:18;17.00;99.90
46458;DHT22;32155;54.076;12.092;2023-07-29T00:38:43;16.90;99.90
46458;DHT22;32155;54.076;12.092;2023-07-29T00:41:09;16.90;99.90
46458;DHT22;32155;54.076;12.092;2023-07-29T00:43:38;16.90;99.90
46458;DHT22;32155;54.076;12.092;2023-07-29T00:46:04;16.90;99.90
46458;DHT22;32155;54.076;12.092;2023-07-29T00:48:29;16.80;99.90
46458;DHT22;32155;54.076;12.092;2023-07-29T00:50:55;16.70;99.90
46458;DHT22;32155;54.076;12.092;2023-07-29T00:53:21;16.60;99.90
46458;DHT22;32155;54.076;12.092;2023-07-29T00:55:46;16.50;99.90
46458;DHT22;32155;54.076;12.092;2023-07-29T00:58:14;16.50;99.90
46458;DHT22;32155;54.076;12.092;2023-07-29T01:00:40;16.40;99.90
46458;DHT22;32155;54.076;12.092;2023-07-29T01:03:05;16.40;99.90
46458;DHT22;32155;54.076;12.092;2023-07-29T01:05:32;16.30;99.90
46458;DHT22;32155;54.076;12.092;2023-07-29T01:08:01;16.30;99.90
46458;DHT22;32155;54.076;12.092;2023-07-29T01:13:17;16.40;99.90
46458;DHT22;32155;54.076;12.092;2023-07-29T01:18:18;16.60;99.90
46458;DHT22;32155;54.076;12.092;2023-07-29T01:20:46;16.50;99.90
46458;DHT22;32155;54.076;12.092;2023-07-29T01:23:15;16.50;99.90
46458;DHT22;32155;54.076;12.092;2023-07-29T01:25:41;16.50;99.90
46458;DHT22;32155;54.076;12.092;2023-07-29T01:28:06;16.50;99.90
46458;DHT22;32155;54.076;12.092;2023-07-29T01:30:38;16.40;99.90
46458;DHT22;32155;54.076;12.092;2023-07-29T01:35:36;16.30;99.90
46458;DHT22;32155;54.076;12.092;2023-07-29T01:38:07;16.20;99.90
46458;DHT22;32155;54.076;12.092;2023-07-29T01:40:34;16.20;99.90
46458;DHT22;32155;54.076;12.092;2023-07-29T01:43:00;16.10;99.90
46458;DHT22;32155;54.076;12.092;2023-07-29T01:45:26;16.10;99.90
46458;DHT22;32155;54.076;12.092;2023-07-29T01:47:56;16.20;99.90
46458;DHT22;32155;54.076;12.092;2023-07-29T01:50:27;16.00;99.90
46458;DHT22;32155;54.076;12.092;2023-07-29T01:52:54;16.00;99.90
46458;DHT22;32155;54.076;12.092;2023-07-29T01:55:20;15.90;99.90
46458;DHT22;32155;54.076;12.092;2023-07-29T01:57:45;15.90;99.90
46458;DHT22;32155;54.076;12.092;2023-07-29T02:00:11;15.80;99.90
46458;DHT22;32155;54.076;12.092;2023-07-29T02:02:37;15.90;99.90
46458;DHT22;32155;54.076;12.092;2023-07-29T02:05:02;15.90;99.90
46458;DHT22;32155;54.076;12.092;2023-07-29T02:07:28;16.10;99.90
46458;DHT22;32155;54.076;12.092;2023-07-29T02:09:53;16.10;99.90
46458;DHT22;32155;54.076;12.092;2023-07-29T02:12:21;16.10;99.90
46458;DHT22;32155;54.076;12.092;2023-07-29T02:14:47;16.10;99.90
46458;DHT22;32155;54.076;12.092;2023-07-29T02:17:12;16.20;99.90
46458;DHT22;32155;54.076;12.092;2023-07-29T02:19:38;16.20;99.90
46458;DHT22;32155;54.076;12.092;2023-07-29T02:22:03;16.20;99.90
46458;DHT22;32155;54.076;12.092;2023-07-29T02:24:29;16.10;99.90
46458;DHT22;32155;54.076;12.092;2023-07-29T02:26:55;16.10;99.90
46458;DHT22;32155;54.076;12.092;2023-07-29T02:29:20;16.10;99.90
46458;DHT22;32155;54.076;12.092;2023-07-29T02:31:50;16.20;99.90
46458;DHT22;32155;54.076;12.092;2023-07-29T02:34:16;16.30;99.90
46458;DHT22;32155;54.076;12.092;2023-07-29T02:36:41;16.20;99.90
46458;DHT22;32155;54.076;12.092;2023-07-29T02:39:07;16.10;99.90
46458;DHT22;32155;54.076;12.092;2023-07-29T02:41:33;16.10;99.90
46458;DHT22;32155;54.076;12.092;2023-07-29T02:44:01;16.20;99.90
46458;DHT22;32155;54.076;12.092;2023-07-29T02:46:26;16.20;99.90
46458;DHT22;32155;54.076;12.092;2023-07-29T02:48:52;16.20;99.90
46458;DHT22;32155;54.076;12.092;2023-07-29T02:51:20;16.30;99.90
46458;DHT22;32155;54.076;12.092;2023-07-29T02:53:45;16.40;99.90
46458;DHT22;32155;54.076;12.092;2023-07-29T02:56:11;16.40;99.90
46458;DHT22;32155;54.076;12.092;2023-07-29T02:58:37;16.40;99.90
46458;DHT22;32155;54.076;12.092;2023-07-29T03:01:03;16.40;99.90
46458;DHT22;32155;54.076;12.092;2023-07-29T03:03:29;16.50;99.90
46458;DHT22;32155;54.076;12.092;2023-07-29T03:06:07;16.40;99.90
46458;DHT22;32155;54.076;12.092;2023-07-29T03:08:33;16.50;99.90
46458;DHT22;32155;54.076;12.092;2023-07-29T03:11:04;16.50;99.90
46458;DHT22;32155;54.076;12.092;2023-07-29T03:13:30;16.50;99.90
46458;DHT22;32155;54.076;12.092;2023-07-29T03:16:04;16.50;99.90
46458;DHT22;32155;54.076;12.092;2023-07-29T03:18:29;16.50;99.90
46458;DHT22;32155;54.076;12.092;2023-07-29T03:20:55;16.40;99.90
46458;DHT22;32155;54.076;12.092;2023-07-29T03:23:21;16.40;99.90
46458;DHT22;32155;54.076;12.092;2023-07-29T03:25:48;16.40;99.90
46458;DHT22;32155;54.076;12.092;2023-07-29T03:28:14;16.40;99.90
46458;DHT22;32155;54.076;12.092;2023-07-29T03:30:40;16.50;99.90
46458;DHT22;32155;54.076;12.092;2023-07-29T03:33:05;16.60;99.90
46458;DHT22;32155;54.076;12.092;2023-07-29T03:35:31;16.70;99.90
46458;DHT22;32155;54.076;12.092;2023-07-29T03:37:56;16.80;99.90
46458;DHT22;32155;54.076;12.092;2023-07-29T03:40:22;16.70;99.90
46458;DHT22;32155;54.076;12.092;2023-07-29T03:42:47;16.60;99.90
46458;DHT22;32155;54.076;12.092;2023-07-29T03:45:13;16.70;99.90
46458;DHT22;32155;54.076;12.092;2023-07-29T03:47:38;16.70;99.90
46458;DHT22;32155;54.076;12.092;2023-07-29T03:50:04;16.60;99.90
46458;DHT22;32155;54.076;12.092;2023-07-29T03:52:30;16.60;99.90
46458;DHT22;32155;54.076;12.092;2023-07-29T03:54:55;16.60;99.90
46458;DHT22;32155;54.076;12.092;2023-07-29T03:57:23;16.50;99.90
46458;DHT22;32155;54.076;12.092;2023-07-29T04:02:19;16.50;99.90
46458;DHT22;32155;54.076;12.092;2023-07-29T04:04:45;16.40;99.90
46458;DHT22;32155;54.076;12.092;2023-07-29T04:07:12;16.60;99.90
46458;DHT22;32155;54.076;12.092;2023-07-29T04:09:38;16.50;99.90
46458;DHT22;32155;54.076;12.092;2023-07-29T04:12:04;16.60;99.90
46458;DHT22;32155;54.076;12.092;2023-07-29T04:14:30;16.80;99.90
46458;DHT22;32155;54.076;12.092;2023-07-29T04:16:55;16.80;99.90
46458;DHT22;32155;54.076;12.092;2023-07-29T04:19:21;16.80;99.90
46458;DHT22;32155;54.076;12.092;2023-07-29T04:21:49;16.80;99.90
46458;DHT22;32155;54.076;12.092;2023-07-29T04:24:16;16.80;99.90
46458;DHT22;32155;54.076;12.092;2023-07-29T04:26:41;16.90;99.90
46458;DHT22;32155;54.076;12.092;2023-07-29T04:29:07;17.00;99.90
46458;DHT22;32155;54.076;12.092;2023-07-29T04:31:32;17.00;99.90
46458;DHT22;32155;54.076;12.092;2023-07-29T04:33:58;17.00;99.90
46458;DHT22;32155;54.076;12.092;2023-07-29T04:36:25;17.00;99.90
46458;DHT22;32155;54.076;12.092;2023-07-29T04:38:51;17.00;99.90
46458;DHT22;32155;54.076;12.092;2023-07-29T04:41:16;17.00;99.90
46458;DHT22;32155;54.076;12.092;2023-07-29T04:43:42;16.90;99.90
46458;DHT22;32155;54.076;12.092;2023-07-29T04:46:07;17.00;99.90
46458;DHT22;32155;54.076;12.092;2023-07-29T04:48:38;17.10;99.90
46458;DHT22;32155;54.076;12.092;2023-07-29T04:51:09;17.10;99.90
46458;DHT22;32155;54.076;12.092;2023-07-29T04:53:34;17.20;99.90
46458;DHT22;32155;54.076;12.092;2023-07-29T04:56:03;17.20;99.90
46458;DHT22;32155;54.076;12.092;2023-07-29T04:58:31;17.30;99.90
46458;DHT22;32155;54.076;12.092;2023-07-29T05:01:00;17.40;99.90
46458;DHT22;32155;54.076;12.092;2023-07-29T05:03:25;17.50;99.90
46458;DHT22;32155;54.076;12.092;2023-07-29T05:05:51;17.60;99.90
46458;DHT22;32155;54.076;12.092;2023-07-29T05:08:18;17.70;99.90
46458;DHT22;32155;54.076;12.092;2023-07-29T05:10:44;17.80;99.90
46458;DHT22;32155;54.076;12.092;2023-07-29T05:13:10;17.90;99.90
46458;DHT22;32155;54.076;12.092;2023-07-29T05:15:35;17.90;99.90
46458;DHT22;32155;54.076;12.092;2023-07-29T05:18:01;18.00;99.90
46458;DHT22;32155;54.076;12.092;2023-07-29T05:20:29;18.00;99.90
46458;DHT22;32155;54.076;12.092;2023-07-29T05:22:57;18.10;99.90
46458;DHT22;32155;54.076;12.092;2023-07-29T05:25:32;18.20;99.90
46458;DHT22;32155;54.076;12.092;2023-07-29T05:28:00;18.10;99.90
46458;DHT22;32155;54.076;12.092;2023-07-29T05:30:26;18.20;99.90
46458;DHT22;32155;54.076;12.092;2023-07-29T05:32:52;18.20;99.90
46458;DHT22;32155;54.076;12.092;2023-07-29T05:35:18;18.20;99.90
46458;DHT22;32155;54.076;12.092;2023-07-29T05:37:45;18.30;99.90
46458;DHT22;32155;54.076;12.092;2023-07-29T05:40:11;18.30;99.90
46458;DHT22;32155;54.076;12.092;2023-07-29T05:42:36;18.40;99.90
46458;DHT22;32155;54.076;12.092;2023-07-29T05:45:02;18.50;99.90
46458;DHT22;32155;54.076;12.092;2023-07-29T05:47:28;18.40;99.90
46458;DHT22;32155;54.076;12.092;2023-07-29T05:49:57;18.50;99.90
46458;DHT22;32155;54.076;12.092;2023-07-29T05:52:23;18.40;99.90
46458;DHT22;32155;54.076;12.092;2023-07-29T05:54:51;18.40;99.90
46458;DHT22;32155;54.076;12.092;2023-07-29T05:57:16;18.60;99.90
46458;DHT22;32155;54.076;12.092;2023-07-29T05:59:47;18.70;99.90
46458;DHT22;32155;54.076;12.092;2023-07-29T06:02:12;18.80;99.90
46458;DHT22;32155;54.076;12.092;2023-07-29T06:04:38;18.90;99.90
46458;DHT22;32155;54.076;12.092;2023-07-29T06:07:06;19.00;99.90
46458;DHT22;32155;54.076;12.092;2023-07-29T06:09:31;19.10;99.90
46458;DHT22;32155;54.076;12.092;2023-07-29T06:11:57;19.20;99.90
46458;DHT22;32155;54.076;12.092;2023-07-29T06:14:22;19.40;99.90
46458;DHT22;32155;54.076;12.092;2023-07-29T06:16:50;19.60;99.90
46458;DHT22;32155;54.076;12.092;2023-07-29T06:19:17;19.60;99.90
46458;DHT22;32155;54.076;12.092;2023-07-29T06:21:45;19.60;99.90
46458;DHT22;32155;54.076;12.092;2023-07-29T06:24:11;19.60;99.90
46458;DHT22;32155;54.076;12.092;2023-07-29T06:26:36;19.50;99.90
46458;DHT22;32155;54.076;12.092;2023-07-29T06:29:04;19.60;99.90
46458;DHT22;32155;54.076;12.092;2023-07-29T06:31:30;19.70;99.90
46458;DHT22;32155;54.076;12.092;2023-07-29T06:33:58;19.90;99.90
46458;DHT22;32155;54.076;12.092;2023-07-29T06:36:24;20.20;99.90
46458;DHT22;32155;54.076;12.092;2023-07-29T06:38:49;20.30;99.90
46458;DHT22;32155;54.076;12.092;2023-07-29T06:41:15;20.70;99.90
46458;DHT22;32155;54.076;12.092;2023-07-29T06:43:44;21.10;99.90
46458;DHT22;32155;54.076;12.092;2023-07-29T06:46:09;21.60;99.90
46458;DHT22;32155;54.076;12.092;2023-07-29T06:48:35;21.80;99.90
46458;DHT22;32155;54.076;12.092;2023-07-29T06:51:00;21.80;99.90
46458;DHT22;32155;54.076;12.092;2023-07-29T06:53:27;22.00;99.90
46458;DHT22;32155;54.076;12.092;2023-07-29T06:55:53;22.10;99.90
46458;DHT22;32155;54.076;12.092;2023-07-29T06:58:19;22.40;99.90
46458;DHT22;32155;54.076;12.092;2023-07-29T07:00:44;22.20;99.90
46458;DHT22;32155;54.076;12.092;2023-07-29T07:03:12;22.00;99.90
46458;DHT22;32155;54.076;12.092;2023-07-29T07:05:37;21.70;99.90
46458;DHT22;32155;54.076;12.092;2023-07-29T07:08:03;21.80;99.90
46458;DHT22;32155;54.076;12.092;2023-07-29T07:10:28;22.00;99.90
46458;DHT22;32155;54.076;12.092;2023-07-29T07:12:56;22.50;99.90
46458;DHT22;32155;54.076;12.092;2023-07-29T07:15:22;22.90;99.90
46458;DHT22;32155;54.076;12.092;2023-07-29T07:17:50;23.70;99.90
46458;DHT22;32155;54.076;12.092;2023-07-29T07:20:16;24.30;99.90
46458;DHT22;32155;54.076;12.092;2023-07-29T07:22:42;24.80;99.90
46458;DHT22;32155;54.076;12.092;2023-07-29T07:25:09;24.20;99.90
46458;DHT22;32155;54.076;12.092;2023-07-29T07:27:36;23.40;99.90
46458;DHT22;32155;54.076;12.092;2023-07-29T07:30:01;22.90;99.90
46458;DHT22;32155;54.076;12.092;2023-07-29T07:32:30;23.00;99.90
46458;DHT22;32155;54.076;12.092;2023-07-29T07:35:02;23.00;99.90
46458;DHT22;32155;54.076;12.092;2023-07-29T07:37:43;22.90;99.90
46458;DHT22;32155;54.076;12.092;2023-07-29T07:40:22;23.00;99.90
46458;DHT22;32155;54.076;12.092;2023-07-29T07:42:48;22.80;99.90
46458;DHT22;32155;54.076;12.092;2023-07-29T07:45:19;22.70;99.90
46458;DHT22;32155;54.076;12.092;2023-07-29T07:47:45;22.90;99.90
46458;DHT22;32155;54.076;12.092;2023-07-29T07:50:13;23.10;99.90
46458;DHT22;32155;54.076;12.092;2023-07-29T07:52:39;23.20;99.90
46458;DHT22;32155;54.076;12.092;2023-07-29T07:55:05;23.50;99.90
46458;DHT22;32155;54.076;12.092;2023-07-29T07:57:31;23.30;99.90
46458;DHT22;32155;54.076;12.092;2023-07-29T07:59:59;23.10;99.90
46458;DHT22;32155;54.076;12.092;2023-07-29T08:02:41;23.00;99.90
46458;DHT22;32155;54.076;12.092;2023-07-29T08:05:07;22.90;99.90
46458;DHT22;32155;54.076;12.092;2023-07-29T08:07:33;22.80;99.90
46458;DHT22;32155;54.076;12.092;2023-07-29T08:10:01;22.90;99.90
46458;DHT22;32155;54.076;12.092;2023-07-29T08:12:29;23.60;99.90
46458;DHT22;32155;54.076;12.092;2023-07-29T08:14:55;24.70;99.90
46458;DHT22;32155;54.076;12.092;2023-07-29T08:17:21;25.20;99.90
46458;DHT22;32155;54.076;12.092;2023-07-29T08:19:56;25.10;99.90
46458;DHT22;32155;54.076;12.092;2023-07-29T08:22:29;25.10;99.90
46458;DHT22;32155;54.076;12.092;2023-07-29T08:24:54;24.60;99.90
46458;DHT22;32155;54.076;12.092;2023-07-29T08:27:20;24.10;99.90
46458;DHT22;32155;54.076;12.092;2023-07-29T08:29:45;24.00;99.90
46458;DHT22;32155;54.076;12.092;2023-07-29T08:32:11;24.00;99.90
46458;DHT22;32155;54.076;12.092;2023-07-29T08:34:39;24.80;99.90
46458;DHT22;32155;54.076;12.092;2023-07-29T08:37:04;24.70;99.90
46458;DHT22;32155;54.076;12.092;2023-07-29T08:44:26;26.10;99.90
46458;DHT22;32155;54.076;12.092;2023-07-29T08:46:51;25.80;99.90
46458;DHT22;32155;54.076;12.092;2023-07-29T08:49:19;25.40;99.90
46458;DHT22;32155;54.076;12.092;2023-07-29T08:51:46;25.70;99.90
46458;DHT22;32155;54.076;12.092;2023-07-29T08:54:12;26.30;99.90
46458;DHT22;32155;54.076;12.092;2023-07-29T08:56:40;26.30;99.90
46458;DHT22;32155;54.076;12.092;2023-07-29T08:59:18;25.60;99.90
46458;DHT22;32155;54.076;12.092;2023-07-29T09:01:44;25.10;99.90
46458;DHT22;32155;54.076;12.092;2023-07-29T09:04:10;24.50;99.90
46458;DHT22;32155;54.076;12.092;2023-07-29T09:06:35;24.30;99.90
46458;DHT22;32155;54.076;12.092;2023-07-29T09:09:15;24.30;99.90
46458;DHT22;32155;54.076;12.092;2023-07-29T09:11:44;24.50;99.90
46458;DHT22;32155;54.076;12.092;2023-07-29T09:14:13;25.20;99.90
46458;DHT22;32155;54.076;12.092;2023-07-29T09:16:52;27.70;99.90
46458;DHT22;32155;54.076;12.092;2023-07-29T09:21:51;30.00;99.90
46458;DHT22;32155;54.076;12.092;2023-07-29T09:24:20;29.10;99.90
46458;DHT22;32155;54.076;12.092;2023-07-29T09:26:49;28.70;99.90
46458;DHT22;32155;54.076;12.092;2023-07-29T09:29:15;28.40;99.90
46458;DHT22;32155;54.076;12.092;2023-07-29T09:31:41;29.00;99.90
46458;DHT22;32155;54.076;12.092;2023-07-29T09:34:09;29.70;99.90
46458;DHT22;32155;54.076;12.092;2023-07-29T09:36:37;28.50;99.90
46458;DHT22;32155;54.076;12.092;2023-07-29T09:39:02;27.70;99.90
46458;DHT22;32155;54.076;12.092;2023-07-29T09:41:31;26.80;99.90
46458;DHT22;32155;54.076;12.092;2023-07-29T09:44:03;26.50;99.90
46458;DHT22;32155;54.076;12.092;2023-07-29T09:46:36;26.30;99.90
46458;DHT22;32155;54.076;12.092;2023-07-29T09:49:08;26.50;99.90
46458;DHT22;32155;54.076;12.092;2023-07-29T09:51:40;26.80;99.90
46458;DHT22;32155;54.076;12.092;2023-07-29T09:54:10;27.10;99.90
46458;DHT22;32155;54.076;12.092;2023-07-29T09:56:49;27.10;99.90
46458;DHT22;32155;54.076;12.092;2023-07-29T09:59:20;26.90;99.90
46458;DHT22;32155;54.076;12.092;2023-07-29T10:01:52;26.50;99.90
46458;DHT22;32155;54.076;12.092;2023-07-29T10:04:21;26.30;99.90
46458;DHT22;32155;54.076;12.092;2023-07-29T10:09:24;26.50;99.90
46458;DHT22;32155;54.076;12.092;2023-07-29T10:11:53;26.70;99.90
46458;DHT22;32155;54.076;12.092;2023-07-29T10:14:22;26.70;99.90
46458;DHT22;32155;54.076;12.092;2023-07-29T10:16:48;26.40;99.90
46458;DHT22;32155;54.076;12.092;2023-07-29T10:19:23;26.40;99.90
46458;DHT22;32155;54.076;12.092;2023-07-29T10:21:52;26.90;99.90
46458;DHT22;32155;54.076;12.092;2023-07-29T10:24:24;27.10;99.90
46458;DHT22;32155;54.076;12.092;2023-07-29T10:26:55;27.40;99.90
46458;DHT22;32155;54.076;12.092;2023-07-29T10:29:22;27.30;99.90
46458;DHT22;32155;54.076;12.092;2023-07-29T10:31:52;27.60;99.90
46458;DHT22;32155;54.076;12.092;2023-07-29T10:34:18;27.30;99.90
46458;DHT22;32155;54.076;12.092;2023-07-29T10:36:45;27.10;99.90
46458;DHT22;32155;54.076;12.092;2023-07-29T10:39:14;26.50;99.90
46458;DHT22;32155;54.076;12.092;2023-07-29T10:41:59;26.10;99.90
46458;DHT22;32155;54.076;12.092;2023-07-29T10:47:17;26.60;99.90
46458;DHT22;32155;54.076;12.092;2023-07-29T10:50:16;26.40;99.90
46458;DHT22;32155;54.076;12.092;2023-07-29T10:58:07;27.20;99.90
46458;DHT22;32155;54.076;12.092;2023-07-29T11:00:42;28.60;99.90
46458;DHT22;32155;54.076;12.092;2023-07-29T11:03:12;29.60;99.90
46458;DHT22;32155;54.076;12.092;2023-07-29T11:05:42;28.80;99.90
46458;DHT22;32155;54.076;12.092;2023-07-29T11:08:27;28.30;99.90
46458;DHT22;32155;54.076;12.092;2023-07-29T11:13:27;27.50;99.90
46458;DHT22;32155;54.076;12.092;2023-07-29T11:15:53;27.40;99.90
46458;DHT22;32155;54.076;12.092;2023-07-29T11:18:19;27.70;99.90
46458;DHT22;32155;54.076;12.092;2023-07-29T11:20:46;28.20;99.90
46458;DHT22;32155;54.076;12.092;2023-07-29T11:23:14;27.90;99.90
46458;DHT22;32155;54.076;12.092;2023-07-29T11:25:40;28.10;99.90
46458;DHT22;32155;54.076;12.092;2023-07-29T11:28:06;27.90;99.90
46458;DHT22;32155;54.076;12.092;2023-07-29T11:30:32;27.40;99.90
46458;DHT22;32155;54.076;12.092;2023-07-29T11:32:59;27.30;99.90
46458;DHT22;32155;54.076;12.092;2023-07-29T11:35:27;26.70;99.90
46458;DHT22;32155;54.076;12.092;2023-07-29T11:37:53;26.20;99.90
46458;DHT22;32155;54.076;12.092;2023-07-29T11:40:20;26.20;99.90
46458;DHT22;32155;54.076;12.092;2023-07-29T11:42:47;26.30;99.90
46458;DHT22;32155;54.076;12.092;2023-07-29T11:45:13;26.10;99.90
46458;DHT22;32155;54.076;12.092;2023-07-29T11:47:39;26.30;99.90
46458;DHT22;32155;54.076;12.092;2023-07-29T11:50:10;26.70;99.90
46458;DHT22;32155;54.076;12.092;2023-07-29T11:52:42;27.00;99.90
46458;DHT22;32155;54.076;12.092;2023-07-29T11:55:12;26.70;99.90
46458;DHT22;32155;54.076;12.092;2023-07-29T11:57:39;26.00;99.90
46458;DHT22;32155;54.076;12.092;2023-07-29T12:00:06;25.30;99.90
46458;DHT22;32155;54.076;12.092;2023-07-29T12:02:33;24.80;99.90
46458;DHT22;32155;54.076;12.092;2023-07-29T12:05:01;24.00;99.90
46458;DHT22;32155;54.076;12.092;2023-07-29T12:07:35;23.20;99.90
46458;DHT22;32155;54.076;12.092;2023-07-29T12:10:02;22.70;99.90
46458;DHT22;32155;54.076;12.092;2023-07-29T12:12:30;22.10;99.90
46458;DHT22;32155;54.076;12.092;2023-07-29T12:14:56;21.70;99.90
46458;DHT22;32155;54.076;12.092;2023-07-29T12:17:22;21.40;99.90
46458;DHT22;32155;54.076;12.092;2023-07-29T12:19:47;21.20;99.90
46458;DHT22;32155;54.076;12.092;2023-07-29T12:22:17;21.10;99.90
46458;DHT22;32155;54.076;12.092;2023-07-29T12:24:45;21.20;99.90
46458;DHT22;32155;54.076;12.092;2023-07-29T12:27:12;21.20;99.90
46458;DHT22;32155;54.076;12.092;2023-07-29T12:29:41;21.20;99.90
46458;DHT22;32155;54.076;12.092;2023-07-29T12:32:20;21.20;99.90
46458;DHT22;32155;54.076;12.092;2023-07-29T12:37:30;21.40;99.90
46458;DHT22;32155;54.076;12.092;2023-07-29T12:39:56;21.40;99.90
46458;DHT22;32155;54.076;12.092;2023-07-29T12:42:22;21.60;99.90
46458;DHT22;32155;54.076;12.092;2023-07-29T12:47:35;21.70;99.90
46458;DHT22;32155;54.076;12.092;2023-07-29T12:50:00;21.80;99.90
46458;DHT22;32155;54.076;12.092;2023-07-29T12:52:26;21.80;99.90
46458;DHT22;32155;54.076;12.092;2023-07-29T12:54:52;22.00;99.90
46458;DHT22;32155;54.076;12.092;2023-07-29T12:57:18;22.40;99.90
46458;DHT22;32155;54.076;12.092;2023-07-29T12:59:43;22.80;99.90
46458;DHT22;32155;54.076;12.092;2023-07-29T13:02:09;23.10;99.90
46458;DHT22;32155;54.076;12.092;2023-07-29T13:04:34;23.40;99.90
46458;DHT22;32155;54.076;12.092;2023-07-29T13:07:00;23.50;99.90
46458;DHT22;32155;54.076;12.092;2023-07-29T13:09:26;23.50;99.90
46458;DHT22;32155;54.076;12.092;2023-07-29T13:11:54;23.70;99.90
46458;DHT22;32155;54.076;12.092;2023-07-29T13:14:25;23.80;99.90
46458;DHT22;32155;54.076;12.092;2023-07-29T13:16:53;23.80;99.90
46458;DHT22;32155;54.076;12.092;2023-07-29T13:19:20;23.90;99.90
46458;DHT22;32155;54.076;12.092;2023-07-29T13:21:46;23.70;99.90
46458;DHT22;32155;54.076;12.092;2023-07-29T13:24:11;23.40;99.90
46458;DHT22;32155;54.076;12.092;2023-07-29T13:26:37;23.40;99.90
46458;DHT22;32155;54.076;12.092;2023-07-29T13:29:03;23.30;99.90
46458;DHT22;32155;54.076;12.092;2023-07-29T13:31:29;23.50;99.90
46458;DHT22;32155;54.076;12.092;2023-07-29T13:33:56;23.80;99.90
46458;DHT22;32155;54.076;12.092;2023-07-29T13:36:28;24.10;99.90
46458;DHT22;32155;54.076;12.092;2023-07-29T13:38:53;24.30;99.90
46458;DHT22;32155;54.076;12.092;2023-07-29T13:41:19;24.40;99.90
46458;DHT22;32155;54.076;12.092;2023-07-29T13:43:46;24.30;99.90
46458;DHT22;32155;54.076;12.092;2023-07-29T13:46:12;24.20;99.90
46458;DHT22;32155;54.076;12.092;2023-07-29T13:48:37;24.00;99.90
46458;DHT22;32155;54.076;12.092;2023-07-29T13:51:07;24.20;99.90
46458;DHT22;32155;54.076;12.092;2023-07-29T13:53:35;24.40;99.90
46458;DHT22;32155;54.076;12.092;2023-07-29T13:56:05;24.30;99.90
46458;DHT22;32155;54.076;12.092;2023-07-29T13:58:31;24.00;99.90
46458;DHT22;32155;54.076;12.092;2023-07-29T14:00:56;24.10;99.90
46458;DHT22;32155;54.076;12.092;2023-07-29T14:03:22;23.90;99.90
46458;DHT22;32155;54.076;12.092;2023-07-29T14:05:48;24.10;99.90
46458;DHT22;32155;54.076;12.092;2023-07-29T14:08:16;24.40;99.90
46458;DHT22;32155;54.076;12.092;2023-07-29T14:10:44;24.60;99.90
46458;DHT22;32155;54.076;12.092;2023-07-29T14:13:10;24.50;99.90
46458;DHT22;32155;54.076;12.092;2023-07-29T14:18:09;24.00;99.90
46458;DHT22;32155;54.076;12.092;2023-07-29T14:20:34;23.90;99.90
46458;DHT22;32155;54.076;12.092;2023-07-29T14:23:00;23.80;99.90
46458;DHT22;32155;54.076;12.092;2023-07-29T14:25:28;24.00;99.90
46458;DHT22;32155;54.076;12.092;2023-07-29T14:27:56;24.20;99.90
46458;DHT22;32155;54.076;12.092;2023-07-29T14:30:21;24.40;99.90
46458;DHT22;32155;54.076;12.092;2023-07-29T14:32:48;24.80;99.90
46458;DHT22;32155;54.076;12.092;2023-07-29T14:35:13;24.80;99.90
46458;DHT22;32155;54.076;12.092;2023-07-29T14:37:39;24.70;99.90
46458;DHT22;32155;54.076;12.092;2023-07-29T14:40:04;24.70;99.90
46458;DHT22;32155;54.076;12.092;2023-07-29T14:42:33;24.50;99.90
46458;DHT22;32155;54.076;12.092;2023-07-29T14:45:01;24.50;99.90
46458;DHT22;32155;54.076;12.092;2023-07-29T14:47:26;24.60;99.90
46458;DHT22;32155;54.076;12.092;2023-07-29T14:49:52;24.60;99.90
46458;DHT22;32155;54.076;12.092;2023-07-29T14:52:17;24.60;99.90
46458;DHT22;32155;54.076;12.092;2023-07-29T14:54:43;24.50;99.90
46458;DHT22;32155;54.076;12.092;2023-07-29T14:57:11;24.30;99.90
46458;DHT22;32155;54.076;12.092;2023-07-29T14:59:36;24.10;99.90
46458;DHT22;32155;54.076;12.092;2023-07-29T15:02:02;23.70;99.90
46458;DHT22;32155;54.076;12.092;2023-07-29T15:04:28;23.50;99.90
46458;DHT22;32155;54.076;12.092;2023-07-29T15:06:58;23.50;99.90
46458;DHT22;32155;54.076;12.092;2023-07-29T15:09:25;23.60;99.90
46458;DHT22;32155;54.076;12.092;2023-07-29T15:11:51;23.60;99.90
46458;DHT22;32155;54.076;12.092;2023-07-29T15:14:20;23.40;99.90
46458;DHT22;32155;54.076;12.092;2023-07-29T15:16:45;23.30;99.90
46458;DHT22;32155;54.076;12.092;2023-07-29T15:19:11;23.20;99.90
46458;DHT22;32155;54.076;12.092;2023-07-29T15:21:36;23.00;99.90
46458;DHT22;32155;54.076;12.092;2023-07-29T15:24:04;22.90;99.90
46458;DHT22;32155;54.076;12.092;2023-07-29T15:26:32;22.70;99.90
46458;DHT22;32155;54.076;12.092;2023-07-29T15:29:01;22.70;99.90
46458;DHT22;32155;54.076;12.092;2023-07-29T15:31:35;22.80;99.90
46458;DHT22;32155;54.076;12.092;2023-07-29T15:34:00;23.10;99.90
46458;DHT22;32155;54.076;12.092;2023-07-29T15:36:26;23.50;99.90
46458;DHT22;32155;54.076;12.092;2023-07-29T15:38:54;23.90;99.90
46458;DHT22;32155;54.076;12.092;2023-07-29T15:41:19;24.30;99.90
46458;DHT22;32155;54.076;12.092;2023-07-29T15:43:45;24.50;99.90
46458;DHT22;32155;54.076;12.092;2023-07-29T15:46:10;24.90;99.90
46458;DHT22;32155;54.076;12.092;2023-07-29T15:48:37;25.10;99.90
46458;DHT22;32155;54.076;12.092;2023-07-29T15:51:03;24.90;99.90
46458;DHT22;32155;54.076;12.092;2023-07-29T15:53:28;24.80;99.90
46458;DHT22;32155;54.076;12.092;2023-07-29T15:56:03;24.60;99.90